Time;durP1;ratioP1;P1;durP2;ratioP2;P2;SDS_P1;SDS_P2;PMS_P1;PMS_P2;Temp;Humidity;BMP_temperature;BMP_pressure;BME280_temperature;BME280_humidity;BME280_pressure;Samples;Min_cycle;Max_cycle;Signal;HPM_P1;HPM_P2
2022/01/17 00:01:43;;;;;;;21.92;10.85;;;4.50;99.90;;;;;;4951353;29;20030;-88
2022/01/17 00:04:10;;;;;;;22.75;11.15;;;4.50;99.90;;;;;;4951280;29;20056;-87
2022/01/17 00:06:37;;;;;;;22.52;10.45;;;4.50;99.90;;;;;;4951667;29;20038;-89
2022/01/17 00:09:03;;;;;;;24.85;10.57;;;4.60;99.90;;;;;;4948418;29;20028;-89
2022/01/17 00:11:29;;;;;;;21.48;10.95;;;4.70;99.90;;;;;;4944840;29;20031;-88
2022/01/17 00:13:56;;;;;;;23.40;11.48;;;4.70;99.90;;;;;;4959940;29;20024;-86
2022/01/17 00:16:32;;;;;;;21.17;10.80;;;4.80;99.90;;;;;;4949282;29;20400;-89
2022/01/17 00:21:42;;;;;;;25.03;11.87;;;4.80;99.90;;;;;;4944159;29;20034;-88
2022/01/17 00:24:09;;;;;;;22.88;10.85;;;4.80;99.90;;;;;;4944512;29;20028;-90
2022/01/17 00:26:35;;;;;;;29.38;11.15;;;4.80;99.90;;;;;;4943154;29;20035;-88
2022/01/17 00:29:01;;;;;;;23.85;11.18;;;4.80;99.90;;;;;;4942323;29;20402;-87
2022/01/17 00:31:26;;;;;;;25.95;10.40;;;4.80;99.90;;;;;;4943390;29;20103;-88
2022/01/17 00:33:52;;;;;;;25.23;10.63;;;4.90;99.90;;;;;;4943898;29;20035;-88
2022/01/17 00:36:18;;;;;;;23.58;11.07;;;4.90;99.90;;;;;;4944606;29;20028;-88
2022/01/17 00:38:44;;;;;;;22.85;11.32;;;4.90;99.90;;;;;;4943281;29;20035;-88
2022/01/17 00:41:09;;;;;;;24.83;11.82;;;4.90;99.90;;;;;;4942905;29;20032;-88
2022/01/17 00:43:35;;;;;;;24.73;11.25;;;4.90;99.90;;;;;;4942125;29;20455;-90
2022/01/17 00:46:01;;;;;;;23.83;11.30;;;4.90;99.90;;;;;;4941991;29;20035;-90
2022/01/17 00:48:27;;;;;;;21.98;10.45;;;4.90;99.90;;;;;;4943151;29;20024;-87
2022/01/17 00:50:53;;;;;;;27.92;12.65;;;4.90;99.90;;;;;;4941239;29;20492;-88
2022/01/17 00:53:18;;;;;;;22.98;10.95;;;4.90;99.90;;;;;;4943860;29;20023;-88
2022/01/17 00:55:44;;;;;;;26.98;12.00;;;4.70;99.90;;;;;;4942020;29;20043;-87
2022/01/17 00:58:10;;;;;;;26.60;12.10;;;4.70;99.90;;;;;;4941677;29;20045;-89
2022/01/17 01:00:37;;;;;;;25.90;11.60;;;4.70;99.90;;;;;;4942520;29;20038;-88
2022/01/17 01:03:04;;;;;;;24.02;11.80;;;4.70;99.90;;;;;;4948338;29;20500;-90
2022/01/17 01:05:30;;;;;;;26.83;12.32;;;4.60;99.90;;;;;;4945068;29;20028;-89
2022/01/17 01:07:57;;;;;;;26.00;12.25;;;4.50;99.90;;;;;;4943301;29;20030;-87
2022/01/17 01:10:23;;;;;;;23.90;11.60;;;4.50;99.90;;;;;;4945829;29;20036;-88
2022/01/17 01:12:50;;;;;;;25.08;13.05;;;4.40;99.90;;;;;;4945662;29;20040;-89
2022/01/17 01:15:44;;;;;;;24.80;12.52;;;4.40;99.90;;;;;;4948507;29;20044;-88
2022/01/17 01:18:16;;;;;;;27.23;12.27;;;4.40;99.90;;;;;;4932478;29;20107;-88
2022/01/17 01:28:44;;;;;;;;;;;4.30;99.90;;;;;;4954216;29;20031;-87
2022/01/17 01:31:26;;;;;;;26.35;10.45;;;4.30;99.90;;;;;;4955054;29;19914;-86
2022/01/17 01:33:55;;;;;;;22.20;10.32;;;4.30;99.90;;;;;;4953560;29;20032;-88
2022/01/17 01:36:27;;;;;;;23.55;10.23;;;4.30;99.90;;;;;;4953284;29;20059;-87
2022/01/17 01:38:53;;;;;;;20.98;10.07;;;4.40;99.90;;;;;;4952475;29;20039;-86
2022/01/17 01:41:20;;;;;;;20.00;9.93;;;4.50;99.90;;;;;;4954199;29;20032;-85
2022/01/17 01:43:46;;;;;;;23.90;10.00;;;4.50;99.90;;;;;;4959896;29;20039;-86
2022/01/17 01:46:17;;;;;;;22.58;9.98;;;4.50;99.90;;;;;;4960037;29;20016;-85
2022/01/17 01:48:42;;;;;;;18.60;8.35;;;4.50;99.90;;;;;;4955840;29;20042;-87
2022/01/17 01:51:09;;;;;;;20.50;9.05;;;4.50;99.90;;;;;;4958701;29;20020;-86
2022/01/17 01:53:36;;;;;;;18.48;9.10;;;4.50;99.90;;;;;;4960072;29;20071;-87
2022/01/17 01:56:02;;;;;;;20.15;8.85;;;4.50;99.90;;;;;;4973084;28;20064;-86
2022/01/17 01:58:28;;;;;;;16.65;9.07;;;4.50;99.90;;;;;;4950073;29;20059;-87
2022/01/17 02:00:55;;;;;;;29.02;10.35;;;4.50;99.90;;;;;;4950361;29;20036;-87
2022/01/17 02:03:22;;;;;;;21.55;10.05;;;4.50;99.90;;;;;;4955945;29;20040;-86
2022/01/17 02:05:47;;;;;;;21.00;9.43;;;4.40;99.90;;;;;;4955438;29;20024;-88
2022/01/17 02:08:16;;;;;;;22.25;10.13;;;4.40;99.90;;;;;;4968322;28;20075;-88
2022/01/17 02:10:42;;;;;;;19.52;9.73;;;4.30;99.90;;;;;;4954944;29;20458;-88
2022/01/17 02:13:08;;;;;;;19.63;9.85;;;4.30;99.90;;;;;;4949299;29;20040;-87
2022/01/17 02:15:34;;;;;;;19.67;10.07;;;4.30;99.90;;;;;;4948621;29;20027;-89
2022/01/17 02:18:00;;;;;;;18.38;9.20;;;4.30;99.90;;;;;;4945331;29;20032;-89
2022/01/17 02:20:40;;;;;;;17.63;8.20;;;4.30;99.90;;;;;;4944721;29;20396;-89
2022/01/17 02:23:07;;;;;;;18.67;9.05;;;4.40;99.90;;;;;;4943382;29;20030;-88
2022/01/17 02:25:33;;;;;;;19.17;8.07;;;4.40;99.90;;;;;;4958589;29;20031;-89
2022/01/17 02:27:59;;;;;;;17.00;7.70;;;4.40;99.90;;;;;;4947225;29;20034;-87
2022/01/17 02:30:26;;;;;;;16.42;8.07;;;4.50;99.90;;;;;;4962130;29;20026;-86
2022/01/17 02:32:53;;;;;;;15.35;7.40;;;4.50;99.90;;;;;;4946128;29;20105;-89
2022/01/17 02:35:22;;;;;;;18.38;8.35;;;4.50;99.90;;;;;;4950779;29;20035;-87
2022/01/17 02:37:48;;;;;;;17.00;9.05;;;4.50;99.90;;;;;;4954576;29;20026;-89
2022/01/17 02:40:16;;;;;;;16.17;8.00;;;4.50;99.90;;;;;;4952176;29;20475;-89
2022/01/17 02:42:44;;;;;;;16.52;8.73;;;4.50;99.90;;;;;;4955036;29;20062;-89
2022/01/17 02:45:20;;;;;;;21.38;10.60;;;4.50;99.90;;;;;;4941637;29;20166;-88
2022/01/17 02:47:46;;;;;;;25.85;12.07;;;4.40;99.90;;;;;;4942120;29;20020;-88
2022/01/17 02:50:12;;;;;;;25.58;11.70;;;4.40;99.90;;;;;;4943025;29;20028;-87
2022/01/17 02:52:38;;;;;;;29.65;12.82;;;4.30;99.90;;;;;;4948104;29;20027;-88
2022/01/17 02:55:04;;;;;;;24.08;12.45;;;4.30;99.90;;;;;;4945544;29;20028;-89
2022/01/17 02:57:33;;;;;;;26.17;12.25;;;4.20;99.90;;;;;;4928604;29;20180;-87
2022/01/17 02:59:59;;;;;;;26.10;12.32;;;4.10;99.90;;;;;;4952436;29;20028;-87
2022/01/17 03:02:25;;;;;;;22.52;11.60;;;4.10;99.90;;;;;;4959815;29;20022;-87
2022/01/17 03:04:51;;;;;;;24.75;11.85;;;4.10;99.90;;;;;;4962213;29;20023;-84
2022/01/17 03:07:16;;;;;;;26.15;12.75;;;4.00;99.90;;;;;;4961342;29;20011;-86
2022/01/17 03:10:01;;;;;;;26.35;12.85;;;4.00;99.90;;;;;;4961482;29;20031;-86
2022/01/17 03:12:26;;;;;;;26.37;13.00;;;4.00;99.90;;;;;;4961802;29;20027;-85
2022/01/17 03:14:52;;;;;;;25.15;13.13;;;4.10;99.90;;;;;;4961184;29;20287;-87
2022/01/17 03:17:18;;;;;;;28.40;12.75;;;4.10;99.90;;;;;;4961218;29;20091;-87
2022/01/17 03:19:44;;;;;;;27.17;13.13;;;4.10;99.90;;;;;;4960811;29;20028;-86
2022/01/17 03:22:09;;;;;;;26.05;13.07;;;4.10;99.90;;;;;;4961747;29;20100;-87
2022/01/17 03:24:35;;;;;;;21.52;11.65;;;4.10;99.90;;;;;;4961772;29;20027;-87
2022/01/17 03:27:01;;;;;;;23.30;12.48;;;4.10;99.90;;;;;;4961406;29;20023;-86
2022/01/17 03:29:27;;;;;;;21.45;11.57;;;4.10;99.90;;;;;;4961812;29;20079;-86
2022/01/17 03:31:53;;;;;;;25.33;11.90;;;4.10;99.90;;;;;;4961721;29;20035;-86
2022/01/17 03:34:18;;;;;;;21.60;11.63;;;4.20;99.90;;;;;;4961640;29;20041;-84
2022/01/17 03:36:44;;;;;;;23.63;11.95;;;4.20;99.90;;;;;;4961396;29;20066;-86
2022/01/17 03:39:11;;;;;;;23.50;11.15;;;4.30;99.90;;;;;;4959311;29;20067;-86
2022/01/17 03:41:37;;;;;;;23.10;11.05;;;4.40;99.90;;;;;;4951740;29;20032;-87
2022/01/17 03:44:03;;;;;;;23.48;11.27;;;4.40;99.90;;;;;;4948346;29;20031;-88
2022/01/17 03:46:29;;;;;;;22.67;10.93;;;4.40;99.90;;;;;;4954542;29;20067;-85
2022/01/17 03:48:55;;;;;;;20.17;10.82;;;4.40;99.90;;;;;;4959830;29;20024;-84
2022/01/17 03:51:21;;;;;;;16.52;9.52;;;4.50;99.90;;;;;;4960696;29;20027;-84
2022/01/17 03:53:47;;;;;;;20.05;9.65;;;4.50;99.90;;;;;;4960526;29;20051;-86
2022/01/17 03:56:12;;;;;;;20.38;10.27;;;4.70;99.90;;;;;;4961324;29;20105;-85
2022/01/17 03:58:38;;;;;;;20.23;10.27;;;4.70;99.90;;;;;;4961199;29;20142;-86
2022/01/17 04:01:04;;;;;;;20.83;10.48;;;4.80;99.90;;;;;;4960642;29;20024;-85
2022/01/17 04:03:30;;;;;;;17.13;9.18;;;4.80;99.90;;;;;;4960994;29;20027;-84
2022/01/17 04:05:56;;;;;;;19.30;9.13;;;4.80;99.90;;;;;;4960499;29;20015;-86
2022/01/17 04:08:22;;;;;;;19.92;8.70;;;4.90;99.90;;;;;;4960516;29;20023;-85
2022/01/17 04:10:48;;;;;;;17.35;9.07;;;4.90;99.90;;;;;;4960691;29;20011;-85
2022/01/17 04:13:14;;;;;;;18.15;9.80;;;4.90;99.90;;;;;;4960695;29;20019;-83
2022/01/17 04:15:40;;;;;;;18.15;9.15;;;4.80;99.90;;;;;;4961112;29;20030;-84
2022/01/17 04:18:08;;;;;;;18.90;9.35;;;4.80;99.90;;;;;;4961213;29;20038;-85
2022/01/17 04:20:35;;;;;;;14.98;8.65;;;4.80;99.90;;;;;;4960501;29;20028;-85
2022/01/17 04:23:06;;;;;;;16.70;8.77;;;4.80;99.90;;;;;;4950858;29;20040;-88
2022/01/17 04:25:33;;;;;;;15.48;8.73;;;4.90;99.90;;;;;;4950101;29;20031;-88
2022/01/17 04:28:00;;;;;;;18.73;8.80;;;4.90;99.90;;;;;;4947683;29;20048;-87
2022/01/17 04:30:27;;;;;;;18.33;9.13;;;5.00;99.90;;;;;;4946395;29;20042;-87
2022/01/17 04:32:53;;;;;;;16.77;8.15;;;5.00;99.90;;;;;;4947264;29;20032;-87
2022/01/17 04:35:21;;;;;;;12.93;7.03;;;5.00;99.90;;;;;;4947750;29;20099;-86
2022/01/17 04:37:49;;;;;;;14.70;7.72;;;5.00;99.90;;;;;;4947265;29;20400;-88
2022/01/17 04:40:15;;;;;;;16.67;8.43;;;5.10;99.90;;;;;;4945533;29;20050;-88
2022/01/17 04:42:45;;;;;;;17.40;8.40;;;5.10;99.90;;;;;;4946263;29;20070;-87
2022/01/17 04:45:15;;;;;;;17.58;9.02;;;5.00;99.90;;;;;;4960165;29;20098;-87
2022/01/17 04:47:43;;;;;;;15.45;7.93;;;5.00;99.90;;;;;;4953010;29;20039;-88
2022/01/17 04:50:16;;;;;;;18.95;8.98;;;5.00;99.90;;;;;;4949594;29;20028;-87
2022/01/17 04:52:42;;;;;;;21.75;9.48;;;5.00;99.90;;;;;;4948162;29;20123;-88
2022/01/17 04:55:11;;;;;;;22.90;9.07;;;5.00;99.90;;;;;;4946337;29;20028;-87
2022/01/17 04:57:38;;;;;;;25.15;9.60;;;4.90;99.90;;;;;;4952722;29;20046;-86
2022/01/17 05:00:06;;;;;;;18.65;8.85;;;4.90;99.90;;;;;;4956806;29;20079;-85
2022/01/17 05:02:32;;;;;;;18.58;9.88;;;4.90;99.90;;;;;;4960055;29;20024;-85
2022/01/17 05:04:58;;;;;;;22.15;9.80;;;4.90;99.90;;;;;;4960150;29;20019;-87
2022/01/17 05:07:24;;;;;;;29.38;9.90;;;4.90;99.90;;;;;;4959640;29;20036;-84
2022/01/17 05:09:50;;;;;;;23.90;10.38;;;4.90;99.90;;;;;;4960059;29;20042;-88
2022/01/17 05:12:16;;;;;;;24.25;10.32;;;4.90;99.90;;;;;;4959411;29;20023;-85
2022/01/17 05:14:47;;;;;;;19.15;10.85;;;5.00;99.90;;;;;;4960102;29;20031;-85
2022/01/17 05:17:36;;;;;;;28.35;11.85;;;5.00;99.90;;;;;;4955199;29;20040;-88
2022/01/17 05:20:02;;;;;;;26.33;12.20;;;5.00;99.90;;;;;;4960345;29;20055;-84
2022/01/17 05:22:33;;;;;;;24.15;11.55;;;5.00;99.90;;;;;;4960226;29;20023;-84
2022/01/17 05:25:06;;;;;;;22.23;11.02;;;5.00;99.90;;;;;;4958809;29;20049;-85
2022/01/17 05:27:34;;;;;;;22.23;10.93;;;5.10;99.90;;;;;;4957743;29;20042;-84
2022/01/17 05:30:00;;;;;;;25.83;12.00;;;5.10;99.90;;;;;;4983798;23;20127;-89
2022/01/17 05:32:25;;;;;;;27.25;12.40;;;5.10;99.90;;;;;;4952784;29;20035;-87
2022/01/17 05:34:51;;;;;;;28.15;12.45;;;5.00;99.90;;;;;;4953739;29;20028;-87
2022/01/17 05:37:18;;;;;;;29.30;12.35;;;5.10;99.90;;;;;;4954986;29;20042;-90
2022/01/17 05:39:44;;;;;;;28.55;13.57;;;5.10;99.90;;;;;;4954543;29;20043;-90
2022/01/17 05:42:14;;;;;;;26.30;12.98;;;5.10;99.90;;;;;;4954889;29;20032;-90
2022/01/17 05:44:44;;;;;;;28.80;12.30;;;5.10;99.90;;;;;;4948766;29;20088;-90
2022/01/17 05:47:10;;;;;;;25.95;11.80;;;5.10;99.90;;;;;;4951267;29;20024;-90
2022/01/17 05:49:36;;;;;;;33.55;13.82;;;5.10;99.90;;;;;;4938557;29;20062;-90
2022/01/17 05:52:03;;;;;;;29.08;13.30;;;5.10;99.90;;;;;;4961121;29;20063;-90
2022/01/17 05:54:32;;;;;;;28.90;13.80;;;5.10;99.90;;;;;;4934215;29;20035;-92
2022/01/17 05:56:58;;;;;;;26.88;12.93;;;5.00;99.90;;;;;;4950565;29;20528;-90
2022/01/17 05:59:25;;;;;;;31.17;13.68;;;5.00;99.90;;;;;;4954269;29;20032;-91
2022/01/17 06:01:54;;;;;;;34.25;14.05;;;5.10;99.90;;;;;;4956378;29;20031;-90
2022/01/17 06:04:21;;;;;;;28.23;13.07;;;5.10;99.90;;;;;;4941631;29;20028;-89
2022/01/17 06:06:47;;;;;;;28.80;13.50;;;5.00;99.90;;;;;;4956656;29;20024;-89
2022/01/17 06:09:14;;;;;;;32.78;14.10;;;5.10;99.90;;;;;;4958951;29;20047;-91
2022/01/17 06:11:40;;;;;;;34.55;13.85;;;5.00;99.90;;;;;;4961674;29;20036;-91
2022/01/17 06:14:07;;;;;;;31.65;14.45;;;5.00;99.90;;;;;;4962108;29;20026;-89
2022/01/17 06:16:33;;;;;;;30.88;13.50;;;5.00;99.90;;;;;;4962271;29;20020;-92
2022/01/17 06:18:59;;;;;;;31.65;15.48;;;5.00;99.90;;;;;;4956392;29;20067;-90
2022/01/17 06:21:25;;;;;;;30.13;13.65;;;4.90;99.90;;;;;;4959742;29;20016;-91
2022/01/17 06:23:52;;;;;;;29.60;12.90;;;5.00;99.90;;;;;;4961164;29;20058;-90
2022/01/17 06:26:19;;;;;;;28.02;13.77;;;5.00;99.90;;;;;;4962288;29;20042;-91
2022/01/17 06:28:46;;;;;;;28.48;13.60;;;5.00;99.90;;;;;;4957204;29;20103;-90
2022/01/17 06:31:12;;;;;;;22.83;11.95;;;5.00;99.90;;;;;;4961087;29;20011;-91
2022/01/17 06:33:39;;;;;;;29.00;12.45;;;4.90;99.90;;;;;;4958008;29;20016;-91
2022/01/17 06:36:05;;;;;;;26.13;12.60;;;4.90;99.90;;;;;;4957404;29;20072;-90
2022/01/17 06:38:31;;;;;;;25.83;13.20;;;4.90;99.90;;;;;;4955427;29;20043;-91
2022/01/17 06:40:57;;;;;;;31.23;13.65;;;5.00;99.90;;;;;;4949441;29;20381;-90
2022/01/17 06:43:23;;;;;;;28.50;12.60;;;5.00;99.90;;;;;;4955766;29;20020;-90
2022/01/17 06:45:49;;;;;;;32.63;12.48;;;5.00;99.90;;;;;;4950017;29;20035;-89
2022/01/17 06:48:15;;;;;;;27.52;12.38;;;5.00;99.90;;;;;;4948388;29;20032;-91
2022/01/17 06:50:41;;;;;;;26.70;12.23;;;5.00;99.90;;;;;;4953601;29;20057;-90
2022/01/17 06:53:07;;;;;;;27.05;12.75;;;5.00;99.90;;;;;;4957080;29;20036;-90
2022/01/17 06:55:34;;;;;;;27.35;13.48;;;5.10;99.90;;;;;;4948274;29;20030;-90
2022/01/17 06:58:00;;;;;;;21.65;11.80;;;5.10;99.90;;;;;;4954637;29;20071;-92
2022/01/17 07:00:26;;;;;;;27.75;13.25;;;5.10;99.90;;;;;;4957035;29;20032;-91
2022/01/17 07:02:52;;;;;;;25.80;12.00;;;5.10;99.90;;;;;;4948709;29;20035;-90
2022/01/17 07:05:18;;;;;;;35.92;12.60;;;5.20;99.90;;;;;;4956127;29;20055;-90
2022/01/17 07:07:45;;;;;;;39.08;12.75;;;5.20;99.90;;;;;;4950932;29;20039;-91
2022/01/17 07:10:11;;;;;;;26.75;12.00;;;5.20;99.90;;;;;;4958459;29;20024;-89
2022/01/17 07:12:37;;;;;;;30.42;11.95;;;5.20;99.90;;;;;;4948101;29;20031;-90
2022/01/17 07:15:07;;;;;;;24.63;12.02;;;5.30;99.90;;;;;;4953641;29;20038;-90
2022/01/17 07:17:34;;;;;;;30.38;14.05;;;5.20;99.90;;;;;;4957885;29;20032;-89
2022/01/17 07:20:00;;;;;;;36.72;12.32;;;5.20;99.90;;;;;;4957201;29;20031;-88
2022/01/17 07:22:27;;;;;;;26.27;12.25;;;5.20;99.90;;;;;;4940622;29;20032;-89
2022/01/17 07:24:55;;;;;;;31.02;13.95;;;5.30;99.90;;;;;;4955613;29;20027;-89
2022/01/17 07:27:21;;;;;;;26.58;13.50;;;5.30;99.90;;;;;;4949479;29;20055;-89
2022/01/17 07:29:46;;;;;;;25.00;12.60;;;5.20;99.90;;;;;;4949526;29;20050;-88
2022/01/17 07:32:12;;;;;;;24.45;12.43;;;5.20;99.90;;;;;;4949537;29;20040;-90
2022/01/17 07:34:38;;;;;;;26.33;13.48;;;5.30;99.90;;;;;;4949331;29;20040;-89
2022/01/17 07:37:04;;;;;;;27.00;12.20;;;5.30;99.90;;;;;;4933430;29;20035;-90
2022/01/17 07:39:30;;;;;;;26.35;12.55;;;5.30;99.90;;;;;;4955015;29;20035;-87
2022/01/17 07:41:56;;;;;;;30.15;13.82;;;5.30;99.90;;;;;;4959651;29;20027;-86
2022/01/17 07:44:24;;;;;;;27.27;12.35;;;5.40;99.90;;;;;;4949778;29;20038;-91
2022/01/17 07:46:56;;;;;;;24.92;12.10;;;5.30;99.90;;;;;;4950844;29;20043;-88
2022/01/17 07:49:23;;;;;;;27.02;12.63;;;5.40;99.90;;;;;;4953810;29;20091;-89
2022/01/17 07:51:58;;;;;;;29.27;13.52;;;5.40;99.90;;;;;;4949816;29;20079;-88
2022/01/17 07:54:26;;;;;;;32.15;13.43;;;5.40;99.90;;;;;;4946785;29;20183;-89
2022/01/17 07:56:52;;;;;;;26.20;12.70;;;5.40;99.90;;;;;;4948057;29;20032;-88
2022/01/17 07:59:19;;;;;;;30.23;13.68;;;5.40;99.90;;;;;;4948019;29;20035;-89
2022/01/17 08:01:45;;;;;;;27.52;12.55;;;5.40;99.90;;;;;;4949001;29;20026;-89
2022/01/17 08:04:11;;;;;;;27.17;12.90;;;5.40;99.90;;;;;;4948933;29;20023;-89
2022/01/17 08:06:39;;;;;;;31.00;13.10;;;5.40;99.90;;;;;;4947293;29;20020;-89
2022/01/17 08:09:29;;;;;;;26.27;12.02;;;5.50;99.90;;;;;;4947610;29;20034;-89
2022/01/17 08:12:00;;;;;;;30.63;12.45;;;5.50;99.90;;;;;;4957455;29;20103;-90
2022/01/17 08:14:27;;;;;;;27.42;13.05;;;5.50;99.90;;;;;;4956839;29;20040;-88
2022/01/17 08:16:53;;;;;;;24.85;12.52;;;5.50;99.90;;;;;;4946076;29;20083;-90
2022/01/17 08:19:23;;;;;;;29.00;11.93;;;5.50;99.90;;;;;;4949013;29;20036;-86
2022/01/17 08:21:51;;;;;;;30.15;12.05;;;5.50;99.90;;;;;;4953616;29;20046;-86
2022/01/17 08:24:18;;;;;;;28.70;12.77;;;5.50;99.90;;;;;;4960869;29;20123;-88
2022/01/17 08:26:44;;;;;;;25.38;10.70;;;5.60;99.90;;;;;;4958818;29;20033;-85
2022/01/17 08:29:11;;;;;;;27.30;12.05;;;5.60;99.90;;;;;;4959312;29;20039;-88
2022/01/17 08:31:37;;;;;;;25.92;12.32;;;5.60;99.90;;;;;;4986565;28;20028;-88
2022/01/17 08:34:03;;;;;;;29.38;11.32;;;5.60;99.90;;;;;;4956995;29;20091;-87
2022/01/17 08:36:29;;;;;;;22.60;10.20;;;5.70;99.90;;;;;;4949758;29;20039;-89
2022/01/17 08:38:54;;;;;;;20.33;8.98;;;5.70;99.90;;;;;;4946026;29;20043;-88
2022/01/17 08:41:20;;;;;;;22.60;9.90;;;5.80;99.90;;;;;;4944669;29;20027;-86
2022/01/17 08:43:49;;;;;;;23.05;9.73;;;5.70;99.90;;;;;;4944454;29;20027;-86
2022/01/17 08:46:16;;;;;;;29.10;9.20;;;5.70;99.90;;;;;;4945778;29;20038;-86
2022/01/17 08:48:42;;;;;;;22.00;10.30;;;5.70;99.90;;;;;;4943805;29;20054;-90
2022/01/17 08:51:08;;;;;;;15.63;7.28;;;5.70;99.90;;;;;;4945243;29;20015;-89
2022/01/17 08:53:34;;;;;;;19.83;8.32;;;5.80;99.90;;;;;;4944976;29;20031;-89
2022/01/17 08:56:00;;;;;;;21.52;7.88;;;5.80;99.90;;;;;;4975881;28;20059;-87
2022/01/17 08:58:26;;;;;;;18.17;7.80;;;5.80;99.90;;;;;;4944916;29;20040;-88
2022/01/17 09:00:52;;;;;;;17.65;7.78;;;5.80;99.90;;;;;;4952296;29;20032;-88
2022/01/17 09:03:19;;;;;;;17.00;7.63;;;5.80;99.90;;;;;;4954952;29;20039;-89
2022/01/17 09:05:45;;;;;;;14.15;6.95;;;5.90;99.90;;;;;;4957456;29;20095;-85
2022/01/17 09:08:11;;;;;;;15.43;6.97;;;5.90;99.90;;;;;;4953276;29;20035;-87
2022/01/17 09:10:38;;;;;;;14.32;7.13;;;5.90;99.90;;;;;;4945610;29;20034;-90
2022/01/17 09:13:04;;;;;;;20.38;6.70;;;5.90;99.90;;;;;;4947957;29;20047;-90
2022/01/17 09:15:30;;;;;;;15.57;7.15;;;5.90;99.90;;;;;;4946720;29;20030;-87
2022/01/17 09:17:57;;;;;;;19.98;7.25;;;6.00;99.90;;;;;;4949244;29;20084;-89
2022/01/17 09:20:23;;;;;;;14.82;6.60;;;5.90;99.90;;;;;;4950512;29;20043;-89
2022/01/17 09:22:49;;;;;;;14.90;7.10;;;6.00;99.90;;;;;;4946836;29;20075;-85
2022/01/17 09:25:15;;;;;;;14.68;6.22;;;6.00;99.90;;;;;;4933789;29;20436;-86
2022/01/17 09:27:42;;;;;;;15.15;6.72;;;6.00;99.90;;;;;;4949782;29;20080;-86
2022/01/17 09:30:12;;;;;;;12.35;6.20;;;6.00;99.90;;;;;;4948890;29;20039;-86
2022/01/17 09:32:38;;;;;;;14.20;6.95;;;5.90;99.90;;;;;;4946813;29;20031;-87
2022/01/17 09:35:07;;;;;;;15.50;6.63;;;5.90;99.90;;;;;;4947137;29;20038;-87
2022/01/17 09:37:33;;;;;;;13.40;6.20;;;5.90;99.90;;;;;;4947305;29;20036;-85
2022/01/17 09:39:59;;;;;;;11.57;6.10;;;6.00;99.90;;;;;;4927735;29;20083;-87
2022/01/17 09:42:25;;;;;;;30.05;6.80;;;6.00;99.90;;;;;;4942155;29;20055;-87
2022/01/17 09:44:50;;;;;;;17.05;6.80;;;6.00;99.90;;;;;;4937682;29;20027;-86
2022/01/17 09:47:17;;;;;;;28.17;6.45;;;6.00;99.90;;;;;;4938373;29;20032;-84
2022/01/17 09:49:51;;;;;;;22.70;7.07;;;6.00;99.90;;;;;;4952950;29;20020;-86
2022/01/17 09:52:34;;;;;;;20.45;7.18;;;6.10;99.90;;;;;;4954586;29;20023;-86
2022/01/17 09:55:15;;;;;;;18.27;7.30;;;6.00;99.90;;;;;;4938943;29;20036;-86
2022/01/17 09:57:51;;;;;;;34.63;7.95;;;6.10;99.90;;;;;;4957006;29;20032;-86
2022/01/17 10:00:20;;;;;;;16.73;7.68;;;6.10;99.90;;;;;;4956585;29;20039;-87
2022/01/17 10:02:45;;;;;;;20.60;7.43;;;6.10;99.90;;;;;;4959392;29;20042;-85
2022/01/17 10:05:14;;;;;;;15.85;7.30;;;6.20;99.90;;;;;;4955443;29;20031;-85
2022/01/17 10:08:04;;;;;;;19.88;8.20;;;6.20;99.90;;;;;;4956625;29;20028;-84
2022/01/17 10:10:47;;;;;;;16.48;8.07;;;6.20;99.90;;;;;;4960249;29;20040;-86
2022/01/17 10:13:20;;;;;;;16.05;7.35;;;6.10;99.90;;;;;;4944509;29;20075;-85
2022/01/17 10:16:10;;;;;;;17.05;8.13;;;6.10;99.90;;;;;;4960984;29;20059;-86
2022/01/17 10:19:00;;;;;;;17.33;7.55;;;6.10;99.90;;;;;;4959282;29;20031;-84
2022/01/17 10:21:47;;;;;;;20.52;8.52;;;6.10;99.90;;;;;;4958091;29;20169;-85
2022/01/17 10:36:52;;;;;;;16.40;8.55;;;6.40;99.90;;;;;;4960483;28;20085;-88
2022/01/17 10:39:19;;;;;;;19.08;7.55;;;6.40;99.90;;;;;;4959737;29;20040;-86
2022/01/17 10:41:44;;;;;;;22.52;8.35;;;6.40;99.90;;;;;;4958490;29;20043;-86
2022/01/17 10:44:37;;;;;;;17.33;7.13;;;6.40;99.90;;;;;;4960724;29;20028;-85
2022/01/17 10:47:26;;;;;;;15.70;7.53;;;6.40;99.90;;;;;;4960389;29;20059;-85
2022/01/17 10:49:59;;;;;;;13.15;6.88;;;6.40;99.90;;;;;;4961113;29;20035;-85
2022/01/17 10:52:47;;;;;;;12.50;7.25;;;6.40;99.90;;;;;;4960744;29;20464;-86
2022/01/17 10:55:17;;;;;;;15.95;6.93;;;6.40;99.90;;;;;;4961424;29;20039;-85
2022/01/17 10:57:45;;;;;;;15.85;6.50;;;6.40;99.90;;;;;;4961001;29;20020;-86
2022/01/17 11:00:14;;;;;;;14.75;7.25;;;6.40;99.90;;;;;;4960924;29;20066;-88
2022/01/17 11:02:45;;;;;;;14.32;7.05;;;6.40;99.90;;;;;;4961128;29;20011;-87
2022/01/17 11:05:13;;;;;;;17.38;7.55;;;6.40;99.90;;;;;;4956253;29;20051;-86
2022/01/17 11:07:44;;;;;;;13.27;6.95;;;6.40;99.90;;;;;;4951506;29;20031;-87
2022/01/17 11:10:17;;;;;;;11.80;6.57;;;6.40;99.90;;;;;;4950676;29;20032;-88
2022/01/17 11:12:43;;;;;;;19.50;7.53;;;6.50;99.90;;;;;;4951249;29;20038;-87
2022/01/17 11:15:12;;;;;;;18.95;6.70;;;6.60;99.90;;;;;;4958077;29;20047;-87
2022/01/17 11:17:47;;;;;;;14.98;6.60;;;6.70;99.90;;;;;;4959983;29;20035;-87
2022/01/17 11:20:14;;;;;;;22.67;6.65;;;6.80;99.90;;;;;;4956001;29;20044;-86
2022/01/17 11:22:41;;;;;;;21.05;6.85;;;6.80;99.90;;;;;;4951820;29;20024;-86
2022/01/17 11:25:11;;;;;;;17.90;6.45;;;6.80;99.90;;;;;;4948547;29;20039;-90
2022/01/17 11:27:38;;;;;;;33.00;6.50;;;6.80;99.90;;;;;;4989679;28;20031;-88
2022/01/17 11:30:06;;;;;;;32.35;7.20;;;6.70;99.90;;;;;;4964881;23;20440;-89
2022/01/17 11:32:32;;;;;;;16.90;6.82;;;6.70;99.90;;;;;;4953507;29;20027;-87
2022/01/17 11:35:02;;;;;;;23.60;6.43;;;6.70;99.90;;;;;;4952696;29;20043;-89
2022/01/17 11:37:34;;;;;;;14.35;6.53;;;6.70;99.90;;;;;;4956907;29;20027;-89
2022/01/17 11:40:01;;;;;;;21.30;6.70;;;6.80;99.90;;;;;;4949291;29;20035;-88
2022/01/17 11:42:41;;;;;;;11.80;6.10;;;6.90;99.90;;;;;;4934019;29;20020;-89
2022/01/17 11:45:35;;;;;;;21.00;6.72;;;6.90;99.90;;;;;;4950368;29;20028;-89
2022/01/17 11:48:20;;;;;;;30.67;6.10;;;6.90;99.90;;;;;;4956026;29;20024;-87
2022/01/17 11:51:35;;;;;;;20.67;6.78;;;7.00;99.90;;;;;;4943957;29;20038;-89
2022/01/17 11:54:13;;;;;;;16.17;6.28;;;7.00;99.90;;;;;;4976306;28;20125;-90
2022/01/17 11:56:50;;;;;;;12.38;6.05;;;7.00;99.90;;;;;;4959730;29;20020;-90
2022/01/17 11:59:39;;;;;;;16.48;6.10;;;7.10;99.90;;;;;;4958664;29;20044;-90
2022/01/17 12:02:26;;;;;;;19.05;6.85;;;7.00;99.90;;;;;;4958987;29;20023;-88
2022/01/17 12:05:07;;;;;;;21.63;6.18;;;7.00;99.90;;;;;;4931046;29;20066;-88
2022/01/17 12:07:54;;;;;;;25.55;6.63;;;7.00;99.90;;;;;;4963967;29;20059;-89
2022/01/17 12:10:26;;;;;;;12.90;6.25;;;7.00;99.90;;;;;;4959679;29;20034;-88
2022/01/17 12:13:33;;;;;;;21.95;6.75;;;7.00;99.90;;;;;;4960972;29;20019;-88
2022/01/17 12:16:32;;;;;;;24.83;7.38;;;7.00;99.90;;;;;;4975403;28;20024;-88
2022/01/17 12:19:00;;;;;;;19.60;6.50;;;7.10;99.90;;;;;;4965022;29;20040;-88
2022/01/17 12:21:40;;;;;;;18.45;6.57;;;7.10;99.90;;;;;;4948344;29;20109;-88
2022/01/17 12:28:17;;;;;;;16.40;6.47;;;7.10;99.90;;;;;;4960582;29;20030;-87
2022/01/17 12:30:49;;;;;;;15.80;5.82;;;7.10;99.90;;;;;;4961353;29;20051;-87
2022/01/17 12:33:27;;;;;;;15.55;6.97;;;7.10;99.90;;;;;;4975976;28;20035;-88
2022/01/17 12:35:56;;;;;;;19.10;7.00;;;7.10;99.90;;;;;;4959476;29;20024;-89
2022/01/17 12:38:39;;;;;;;13.38;5.90;;;7.00;99.90;;;;;;4976348;28;20108;-86
2022/01/17 12:41:06;;;;;;;17.17;6.60;;;6.90;99.90;;;;;;4959924;29;20035;-87
2022/01/17 12:43:35;;;;;;;13.70;6.60;;;7.00;99.90;;;;;;4960107;29;20079;-87
2022/01/17 12:46:04;;;;;;;13.02;5.85;;;7.00;99.90;;;;;;4960563;29;20028;-87
2022/01/17 12:48:32;;;;;;;15.88;5.85;;;7.00;99.90;;;;;;4960426;29;20019;-86
2022/01/17 12:51:03;;;;;;;18.48;6.40;;;7.10;99.90;;;;;;4975398;28;20020;-87
2022/01/17 12:53:30;;;;;;;25.55;6.97;;;7.10;99.90;;;;;;4959600;29;20024;-86
2022/01/17 12:56:04;;;;;;;15.43;6.53;;;7.10;99.90;;;;;;4960007;29;20016;-88
2022/01/17 12:58:48;;;;;;;14.75;5.97;;;7.10;99.90;;;;;;4959084;29;20044;-88
2022/01/17 13:01:17;;;;;;;13.40;6.68;;;7.00;99.90;;;;;;4975717;28;20036;-89
2022/01/17 13:03:46;;;;;;;15.43;6.20;;;6.90;99.90;;;;;;4975593;28;20051;-89
2022/01/17 13:06:16;;;;;;;16.58;5.72;;;6.90;99.90;;;;;;4975331;28;20046;-90
2022/01/17 13:08:44;;;;;;;11.57;6.05;;;7.00;99.90;;;;;;4959148;29;20026;-90
2022/01/17 13:11:16;;;;;;;13.32;6.28;;;7.00;99.90;;;;;;4974343;28;20047;-88
2022/01/17 13:14:01;;;;;;;10.85;5.80;;;6.90;99.90;;;;;;4973407;29;20042;-88
2022/01/17 13:16:34;;;;;;;11.85;5.80;;;6.80;99.90;;;;;;4972818;29;20079;-89
2022/01/17 13:19:00;;;;;;;12.85;5.97;;;6.70;99.90;;;;;;4959435;29;20020;-89
2022/01/17 13:21:27;;;;;;;13.07;5.78;;;6.70;99.90;;;;;;4975120;28;20028;-89